sensor_id;sensor_type;location;lat;lon;timestamp;P1;durP1;ratioP1;P2;durP2;ratioP2
52354;SDS011;38286;51.156;17.038;2023-03-23T00:00:17;33.55;;;19.63;;
52354;SDS011;38286;51.156;17.038;2023-03-23T00:03:03;38.70;;;20.45;;
52354;SDS011;38286;51.156;17.038;2023-03-23T00:05:29;35.20;;;20.60;;
52354;SDS011;38286;51.156;17.038;2023-03-23T00:07:55;33.42;;;19.02;;
52354;SDS011;38286;51.156;17.038;2023-03-23T00:10:21;34.35;;;19.48;;
52354;SDS011;38286;51.156;17.038;2023-03-23T00:12:49;34.92;;;18.05;;
52354;SDS011;38286;51.156;17.038;2023-03-23T00:15:15;28.38;;;16.80;;
52354;SDS011;38286;51.156;17.038;2023-03-23T00:17:42;32.92;;;17.00;;
52354;SDS011;38286;51.156;17.038;2023-03-23T00:20:11;33.17;;;17.73;;
52354;SDS011;38286;51.156;17.038;2023-03-23T00:22:38;32.13;;;17.98;;
52354;SDS011;38286;51.156;17.038;2023-03-23T00:25:04;33.20;;;18.20;;
52354;SDS011;38286;51.156;17.038;2023-03-23T00:27:31;30.52;;;17.95;;
52354;SDS011;38286;51.156;17.038;2023-03-23T00:29:57;29.42;;;18.10;;
52354;SDS011;38286;51.156;17.038;2023-03-23T00:32:24;33.40;;;18.98;;
52354;SDS011;38286;51.156;17.038;2023-03-23T00:34:54;31.58;;;18.73;;
52354;SDS011;38286;51.156;17.038;2023-03-23T00:37:21;31.00;;;17.77;;
52354;SDS011;38286;51.156;17.038;2023-03-23T00:39:46;32.03;;;18.45;;
52354;SDS011;38286;51.156;17.038;2023-03-23T00:42:13;33.35;;;18.15;;
52354;SDS011;38286;51.156;17.038;2023-03-23T00:44:40;31.45;;;19.38;;
52354;SDS011;38286;51.156;17.038;2023-03-23T00:47:06;30.08;;;17.42;;
52354;SDS011;38286;51.156;17.038;2023-03-23T00:49:34;34.63;;;18.88;;
52354;SDS011;38286;51.156;17.038;2023-03-23T00:52:01;35.25;;;19.67;;
52354;SDS011;38286;51.156;17.038;2023-03-23T00:54:27;33.20;;;19.10;;
52354;SDS011;38286;51.156;17.038;2023-03-23T00:56:54;32.38;;;19.48;;
52354;SDS011;38286;51.156;17.038;2023-03-23T00:59:20;31.95;;;18.25;;
52354;SDS011;38286;51.156;17.038;2023-03-23T01:01:48;37.45;;;19.60;;
52354;SDS011;38286;51.156;17.038;2023-03-23T01:04:14;29.92;;;18.20;;
52354;SDS011;38286;51.156;17.038;2023-03-23T01:06:41;32.95;;;18.27;;
52354;SDS011;38286;51.156;17.038;2023-03-23T01:09:09;34.47;;;18.70;;
52354;SDS011;38286;51.156;17.038;2023-03-23T01:11:43;31.67;;;18.05;;
52354;SDS011;38286;51.156;17.038;2023-03-23T01:14:10;31.35;;;18.35;;
52354;SDS011;38286;51.156;17.038;2023-03-23T01:16:37;32.72;;;18.13;;
52354;SDS011;38286;51.156;17.038;2023-03-23T01:19:03;31.92;;;18.35;;
52354;SDS011;38286;51.156;17.038;2023-03-23T01:21:30;31.05;;;18.08;;
52354;SDS011;38286;51.156;17.038;2023-03-23T01:23:56;34.35;;;18.35;;
52354;SDS011;38286;51.156;17.038;2023-03-23T01:26:23;31.33;;;17.75;;
52354;SDS011;38286;51.156;17.038;2023-03-23T01:28:50;30.45;;;16.88;;
52354;SDS011;38286;51.156;17.038;2023-03-23T01:31:20;32.35;;;18.15;;
52354;SDS011;38286;51.156;17.038;2023-03-23T01:33:47;34.65;;;18.50;;
52354;SDS011;38286;51.156;17.038;2023-03-23T01:36:17;30.60;;;16.38;;
52354;SDS011;38286;51.156;17.038;2023-03-23T01:38:46;30.27;;;18.15;;
52354;SDS011;38286;51.156;17.038;2023-03-23T01:41:13;33.42;;;18.92;;
52354;SDS011;38286;51.156;17.038;2023-03-23T01:46:42;27.50;;;16.48;;
52354;SDS011;38286;51.156;17.038;2023-03-23T01:51:59;30.40;;;16.35;;
52354;SDS011;38286;51.156;17.038;2023-03-23T01:54:25;31.70;;;16.50;;
52354;SDS011;38286;51.156;17.038;2023-03-23T01:56:59;30.67;;;17.35;;
52354;SDS011;38286;51.156;17.038;2023-03-23T01:59:35;32.22;;;18.10;;
52354;SDS011;38286;51.156;17.038;2023-03-23T02:02:02;30.30;;;16.88;;
52354;SDS011;38286;51.156;17.038;2023-03-23T02:04:28;31.90;;;17.55;;
52354;SDS011;38286;51.156;17.038;2023-03-23T02:06:55;30.30;;;17.35;;
52354;SDS011;38286;51.156;17.038;2023-03-23T02:09:25;34.40;;;18.75;;
52354;SDS011;38286;51.156;17.038;2023-03-23T02:11:52;31.00;;;18.17;;
52354;SDS011;38286;51.156;17.038;2023-03-23T02:14:19;37.30;;;20.52;;
52354;SDS011;38286;51.156;17.038;2023-03-23T02:16:54;31.48;;;17.48;;
52354;SDS011;38286;51.156;17.038;2023-03-23T02:24:53;43.90;;;21.95;;
52354;SDS011;38286;51.156;17.038;2023-03-23T02:32:52;36.15;;;19.40;;
52354;SDS011;38286;51.156;17.038;2023-03-23T02:35:43;37.63;;;21.40;;
52354;SDS011;38286;51.156;17.038;2023-03-23T02:41:01;37.25;;;20.38;;
52354;SDS011;38286;51.156;17.038;2023-03-23T02:43:30;33.40;;;19.80;;
52354;SDS011;38286;51.156;17.038;2023-03-23T02:45:58;39.05;;;19.95;;
52354;SDS011;38286;51.156;17.038;2023-03-23T02:48:44;38.50;;;22.55;;
52354;SDS011;38286;51.156;17.038;2023-03-23T02:51:13;39.42;;;20.73;;
52354;SDS011;38286;51.156;17.038;2023-03-23T02:53:41;40.40;;;21.13;;
52354;SDS011;38286;51.156;17.038;2023-03-23T02:56:08;35.95;;;20.52;;
52354;SDS011;38286;51.156;17.038;2023-03-23T02:58:35;31.95;;;16.52;;
52354;SDS011;38286;51.156;17.038;2023-03-23T03:03:54;20.38;;;11.93;;
52354;SDS011;38286;51.156;17.038;2023-03-23T03:09:13;24.77;;;11.43;;
52354;SDS011;38286;51.156;17.038;2023-03-23T03:11:45;16.52;;;10.02;;
52354;SDS011;38286;51.156;17.038;2023-03-23T03:14:18;18.67;;;10.00;;
52354;SDS011;38286;51.156;17.038;2023-03-23T03:16:53;18.73;;;9.68;;
52354;SDS011;38286;51.156;17.038;2023-03-23T03:19:30;14.68;;;8.32;;
52354;SDS011;38286;51.156;17.038;2023-03-23T03:21:58;15.00;;;8.52;;
52354;SDS011;38286;51.156;17.038;2023-03-23T03:24:26;13.40;;;7.35;;
52354;SDS011;38286;51.156;17.038;2023-03-23T03:26:53;11.48;;;6.97;;
52354;SDS011;38286;51.156;17.038;2023-03-23T03:29:24;12.07;;;6.68;;
52354;SDS011;38286;51.156;17.038;2023-03-23T03:31:55;11.60;;;6.78;;
52354;SDS011;38286;51.156;17.038;2023-03-23T03:34:22;11.18;;;5.88;;
52354;SDS011;38286;51.156;17.038;2023-03-23T03:36:49;10.07;;;6.10;;
52354;SDS011;38286;51.156;17.038;2023-03-23T03:39:17;9.85;;;5.38;;
52354;SDS011;38286;51.156;17.038;2023-03-23T03:41:46;12.77;;;7.03;;
52354;SDS011;38286;51.156;17.038;2023-03-23T03:44:12;9.45;;;5.40;;
52354;SDS011;38286;51.156;17.038;2023-03-23T03:46:38;9.18;;;5.78;;
52354;SDS011;38286;51.156;17.038;2023-03-23T03:49:06;10.43;;;6.80;;
52354;SDS011;38286;51.156;17.038;2023-03-23T03:51:34;18.75;;;11.30;;
52354;SDS011;38286;51.156;17.038;2023-03-23T03:54:01;12.68;;;6.53;;
52354;SDS011;38286;51.156;17.038;2023-03-23T03:56:27;16.95;;;9.32;;
52354;SDS011;38286;51.156;17.038;2023-03-23T03:58:53;10.90;;;6.35;;
52354;SDS011;38286;51.156;17.038;2023-03-23T04:01:20;9.35;;;5.60;;
52354;SDS011;38286;51.156;17.038;2023-03-23T04:03:48;9.77;;;5.38;;
52354;SDS011;38286;51.156;17.038;2023-03-23T04:06:14;7.05;;;5.00;;
52354;SDS011;38286;51.156;17.038;2023-03-23T04:08:41;10.05;;;5.25;;
52354;SDS011;38286;51.156;17.038;2023-03-23T04:11:09;9.15;;;4.70;;
52354;SDS011;38286;51.156;17.038;2023-03-23T04:13:36;8.05;;;4.72;;
52354;SDS011;38286;51.156;17.038;2023-03-23T04:16:02;8.70;;;4.95;;
52354;SDS011;38286;51.156;17.038;2023-03-23T04:18:29;7.03;;;4.35;;
52354;SDS011;38286;51.156;17.038;2023-03-23T04:20:57;9.38;;;4.72;;
52354;SDS011;38286;51.156;17.038;2023-03-23T04:23:25;7.28;;;4.50;;
52354;SDS011;38286;51.156;17.038;2023-03-23T04:25:52;8.93;;;4.53;;
52354;SDS011;38286;51.156;17.038;2023-03-23T04:28:22;6.50;;;4.28;;
52354;SDS011;38286;51.156;17.038;2023-03-23T04:30:52;9.32;;;5.20;;
52354;SDS011;38286;51.156;17.038;2023-03-23T04:33:20;6.55;;;4.50;;
52354;SDS011;38286;51.156;17.038;2023-03-23T04:35:47;5.88;;;4.15;;
52354;SDS011;38286;51.156;17.038;2023-03-23T04:38:15;10.32;;;4.38;;
52354;SDS011;38286;51.156;17.038;2023-03-23T04:40:42;7.90;;;4.68;;
52354;SDS011;38286;51.156;17.038;2023-03-23T04:43:09;8.48;;;4.45;;
52354;SDS011;38286;51.156;17.038;2023-03-23T04:45:38;9.00;;;5.00;;
52354;SDS011;38286;51.156;17.038;2023-03-23T04:48:07;13.23;;;4.80;;
52354;SDS011;38286;51.156;17.038;2023-03-23T04:50:34;9.32;;;4.30;;
52354;SDS011;38286;51.156;17.038;2023-03-23T04:53:00;8.70;;;4.60;;
52354;SDS011;38286;51.156;17.038;2023-03-23T04:55:31;11.50;;;4.65;;
52354;SDS011;38286;51.156;17.038;2023-03-23T04:58:04;8.13;;;4.75;;
52354;SDS011;38286;51.156;17.038;2023-03-23T05:00:32;6.30;;;4.20;;
52354;SDS011;38286;51.156;17.038;2023-03-23T05:02:59;8.32;;;4.40;;
52354;SDS011;38286;51.156;17.038;2023-03-23T05:05:26;7.18;;;4.43;;
52354;SDS011;38286;51.156;17.038;2023-03-23T05:07:53;7.35;;;4.72;;
52354;SDS011;38286;51.156;17.038;2023-03-23T05:10:19;6.65;;;4.28;;
52354;SDS011;38286;51.156;17.038;2023-03-23T05:12:45;5.80;;;3.92;;
52354;SDS011;38286;51.156;17.038;2023-03-23T05:15:12;7.55;;;4.13;;
52354;SDS011;38286;51.156;17.038;2023-03-23T05:17:39;9.63;;;4.38;;
52354;SDS011;38286;51.156;17.038;2023-03-23T05:20:06;7.90;;;4.13;;
52354;SDS011;38286;51.156;17.038;2023-03-23T05:22:36;7.13;;;4.05;;
52354;SDS011;38286;51.156;17.038;2023-03-23T05:25:03;8.13;;;4.05;;
52354;SDS011;38286;51.156;17.038;2023-03-23T05:27:36;7.63;;;4.25;;
52354;SDS011;38286;51.156;17.038;2023-03-23T05:30:03;6.85;;;4.28;;
52354;SDS011;38286;51.156;17.038;2023-03-23T05:32:32;9.10;;;4.68;;
52354;SDS011;38286;51.156;17.038;2023-03-23T05:34:58;8.48;;;4.63;;
52354;SDS011;38286;51.156;17.038;2023-03-23T05:37:25;9.30;;;4.32;;
52354;SDS011;38286;51.156;17.038;2023-03-23T05:39:54;6.53;;;4.00;;
52354;SDS011;38286;51.156;17.038;2023-03-23T05:42:21;11.48;;;4.90;;
52354;SDS011;38286;51.156;17.038;2023-03-23T05:44:48;10.52;;;4.78;;
52354;SDS011;38286;51.156;17.038;2023-03-23T05:47:15;9.85;;;4.35;;
52354;SDS011;38286;51.156;17.038;2023-03-23T05:49:41;10.35;;;4.90;;
52354;SDS011;38286;51.156;17.038;2023-03-23T05:52:07;8.75;;;4.30;;
52354;SDS011;38286;51.156;17.038;2023-03-23T05:54:33;14.77;;;4.85;;
52354;SDS011;38286;51.156;17.038;2023-03-23T05:57:02;9.07;;;4.60;;
52354;SDS011;38286;51.156;17.038;2023-03-23T05:59:28;6.82;;;4.68;;
52354;SDS011;38286;51.156;17.038;2023-03-23T06:01:55;9.80;;;5.25;;
52354;SDS011;38286;51.156;17.038;2023-03-23T06:04:21;10.02;;;4.90;;
52354;SDS011;38286;51.156;17.038;2023-03-23T06:06:50;7.80;;;4.53;;
52354;SDS011;38286;51.156;17.038;2023-03-23T06:09:19;9.38;;;4.50;;
52354;SDS011;38286;51.156;17.038;2023-03-23T06:11:46;12.18;;;5.40;;
52354;SDS011;38286;51.156;17.038;2023-03-23T06:14:15;9.93;;;4.35;;
52354;SDS011;38286;51.156;17.038;2023-03-23T06:16:43;8.93;;;4.88;;
52354;SDS011;38286;51.156;17.038;2023-03-23T06:19:08;10.82;;;4.47;;
52354;SDS011;38286;51.156;17.038;2023-03-23T06:21:36;9.25;;;4.65;;
52354;SDS011;38286;51.156;17.038;2023-03-23T06:24:02;11.95;;;4.80;;
52354;SDS011;38286;51.156;17.038;2023-03-23T06:26:34;8.50;;;4.72;;
52354;SDS011;38286;51.156;17.038;2023-03-23T06:29:02;10.20;;;3.88;;
52354;SDS011;38286;51.156;17.038;2023-03-23T06:31:39;13.55;;;4.93;;
52354;SDS011;38286;51.156;17.038;2023-03-23T06:34:07;10.75;;;4.88;;
52354;SDS011;38286;51.156;17.038;2023-03-23T06:36:34;8.75;;;4.60;;
52354;SDS011;38286;51.156;17.038;2023-03-23T06:39:01;11.15;;;4.50;;
52354;SDS011;38286;51.156;17.038;2023-03-23T06:41:30;13.52;;;4.65;;
52354;SDS011;38286;51.156;17.038;2023-03-23T06:43:57;6.38;;;3.80;;
52354;SDS011;38286;51.156;17.038;2023-03-23T06:46:24;7.45;;;4.32;;
52354;SDS011;38286;51.156;17.038;2023-03-23T06:48:50;6.82;;;4.25;;
52354;SDS011;38286;51.156;17.038;2023-03-23T06:51:17;12.45;;;4.50;;
52354;SDS011;38286;51.156;17.038;2023-03-23T06:53:43;9.30;;;4.22;;
52354;SDS011;38286;51.156;17.038;2023-03-23T06:56:09;8.43;;;4.30;;
52354;SDS011;38286;51.156;17.038;2023-03-23T06:58:36;9.30;;;4.43;;
52354;SDS011;38286;51.156;17.038;2023-03-23T07:01:03;11.90;;;4.30;;
52354;SDS011;38286;51.156;17.038;2023-03-23T07:03:29;10.48;;;4.60;;
52354;SDS011;38286;51.156;17.038;2023-03-23T07:05:56;7.93;;;4.57;;
52354;SDS011;38286;51.156;17.038;2023-03-23T07:08:23;17.55;;;4.95;;
52354;SDS011;38286;51.156;17.038;2023-03-23T07:10:53;12.20;;;4.25;;
52354;SDS011;38286;51.156;17.038;2023-03-23T07:13:20;8.55;;;4.13;;
52354;SDS011;38286;51.156;17.038;2023-03-23T07:15:46;11.38;;;4.20;;
52354;SDS011;38286;51.156;17.038;2023-03-23T07:18:13;9.45;;;3.85;;
52354;SDS011;38286;51.156;17.038;2023-03-23T07:20:40;7.65;;;3.95;;
52354;SDS011;38286;51.156;17.038;2023-03-23T07:23:06;8.60;;;3.88;;
52354;SDS011;38286;51.156;17.038;2023-03-23T07:25:32;8.52;;;3.78;;
52354;SDS011;38286;51.156;17.038;2023-03-23T07:27:59;11.27;;;4.13;;
52354;SDS011;38286;51.156;17.038;2023-03-23T07:30:26;6.28;;;4.10;;
52354;SDS011;38286;51.156;17.038;2023-03-23T07:32:54;12.75;;;4.50;;
52354;SDS011;38286;51.156;17.038;2023-03-23T07:35:21;9.63;;;4.70;;
52354;SDS011;38286;51.156;17.038;2023-03-23T07:37:47;10.90;;;4.25;;
52354;SDS011;38286;51.156;17.038;2023-03-23T07:40:14;9.73;;;4.82;;
52354;SDS011;38286;51.156;17.038;2023-03-23T07:42:41;14.23;;;4.80;;
52354;SDS011;38286;51.156;17.038;2023-03-23T07:45:12;9.27;;;4.78;;
52354;SDS011;38286;51.156;17.038;2023-03-23T07:47:39;12.63;;;4.43;;
52354;SDS011;38286;51.156;17.038;2023-03-23T07:50:06;9.20;;;4.60;;
52354;SDS011;38286;51.156;17.038;2023-03-23T07:52:33;9.00;;;4.13;;
52354;SDS011;38286;51.156;17.038;2023-03-23T07:55:00;16.08;;;5.05;;
52354;SDS011;38286;51.156;17.038;2023-03-23T07:57:27;13.00;;;4.90;;
52354;SDS011;38286;51.156;17.038;2023-03-23T07:59:54;11.45;;;4.78;;
52354;SDS011;38286;51.156;17.038;2023-03-23T08:02:20;9.55;;;4.65;;
52354;SDS011;38286;51.156;17.038;2023-03-23T08:04:47;10.65;;;4.82;;
52354;SDS011;38286;51.156;17.038;2023-03-23T08:07:14;19.75;;;4.97;;
52354;SDS011;38286;51.156;17.038;2023-03-23T08:09:42;20.20;;;5.20;;
52354;SDS011;38286;51.156;17.038;2023-03-23T08:12:08;13.80;;;5.07;;
52354;SDS011;38286;51.156;17.038;2023-03-23T08:14:34;16.33;;;5.03;;
52354;SDS011;38286;51.156;17.038;2023-03-23T08:17:00;20.95;;;6.20;;
52354;SDS011;38286;51.156;17.038;2023-03-23T08:19:27;20.63;;;5.65;;
52354;SDS011;38286;51.156;17.038;2023-03-23T08:21:53;17.73;;;5.57;;
52354;SDS011;38286;51.156;17.038;2023-03-23T08:24:19;13.32;;;5.15;;
52354;SDS011;38286;51.156;17.038;2023-03-23T08:26:45;12.32;;;5.40;;
52354;SDS011;38286;51.156;17.038;2023-03-23T08:29:11;10.65;;;4.97;;
52354;SDS011;38286;51.156;17.038;2023-03-23T08:31:37;11.30;;;4.95;;
52354;SDS011;38286;51.156;17.038;2023-03-23T08:34:04;12.82;;;5.38;;
52354;SDS011;38286;51.156;17.038;2023-03-23T08:36:32;10.85;;;4.82;;
52354;SDS011;38286;51.156;17.038;2023-03-23T08:38:58;7.47;;;4.82;;
52354;SDS011;38286;51.156;17.038;2023-03-23T08:41:25;11.52;;;4.43;;
52354;SDS011;38286;51.156;17.038;2023-03-23T08:43:51;8.90;;;4.78;;
52354;SDS011;38286;51.156;17.038;2023-03-23T08:46:18;10.32;;;3.65;;
52354;SDS011;38286;51.156;17.038;2023-03-23T08:48:45;5.50;;;3.45;;
52354;SDS011;38286;51.156;17.038;2023-03-23T08:51:12;5.50;;;3.15;;
52354;SDS011;38286;51.156;17.038;2023-03-23T08:53:38;5.78;;;3.17;;
52354;SDS011;38286;51.156;17.038;2023-03-23T08:56:08;5.07;;;2.80;;
52354;SDS011;38286;51.156;17.038;2023-03-23T08:58:36;5.45;;;3.33;;
52354;SDS011;38286;51.156;17.038;2023-03-23T09:01:03;4.40;;;3.10;;
52354;SDS011;38286;51.156;17.038;2023-03-23T09:03:32;6.20;;;3.05;;
52354;SDS011;38286;51.156;17.038;2023-03-23T09:06:04;6.25;;;3.10;;
52354;SDS011;38286;51.156;17.038;2023-03-23T09:08:31;5.88;;;3.10;;
52354;SDS011;38286;51.156;17.038;2023-03-23T09:10:58;7.53;;;3.53;;
52354;SDS011;38286;51.156;17.038;2023-03-23T09:13:25;4.18;;;3.22;;
52354;SDS011;38286;51.156;17.038;2023-03-23T09:15:51;5.30;;;2.75;;
52354;SDS011;38286;51.156;17.038;2023-03-23T09:18:18;6.97;;;3.30;;
52354;SDS011;38286;51.156;17.038;2023-03-23T09:20:44;5.78;;;3.00;;
52354;SDS011;38286;51.156;17.038;2023-03-23T09:23:11;6.88;;;3.15;;
52354;SDS011;38286;51.156;17.038;2023-03-23T09:25:38;8.13;;;2.88;;
52354;SDS011;38286;51.156;17.038;2023-03-23T09:28:04;8.30;;;2.78;;
52354;SDS011;38286;51.156;17.038;2023-03-23T09:30:31;6.75;;;3.85;;
52354;SDS011;38286;51.156;17.038;2023-03-23T09:32:59;7.20;;;3.25;;
52354;SDS011;38286;51.156;17.038;2023-03-23T09:35:29;6.35;;;2.80;;
52354;SDS011;38286;51.156;17.038;2023-03-23T09:37:57;6.55;;;2.38;;
52354;SDS011;38286;51.156;17.038;2023-03-23T09:40:30;7.82;;;2.58;;
52354;SDS011;38286;51.156;17.038;2023-03-23T09:48:52;5.65;;;2.70;;
52354;SDS011;38286;51.156;17.038;2023-03-23T09:51:35;4.28;;;1.83;;
52354;SDS011;38286;51.156;17.038;2023-03-23T09:56:46;3.92;;;1.92;;
52354;SDS011;38286;51.156;17.038;2023-03-23T09:59:15;3.67;;;1.67;;
52354;SDS011;38286;51.156;17.038;2023-03-23T10:01:47;3.90;;;2.90;;
52354;SDS011;38286;51.156;17.038;2023-03-23T10:04:24;5.50;;;2.47;;
52354;SDS011;38286;51.156;17.038;2023-03-23T10:06:59;5.00;;;2.40;;
52354;SDS011;38286;51.156;17.038;2023-03-23T10:09:35;3.10;;;1.92;;
52354;SDS011;38286;51.156;17.038;2023-03-23T10:17:30;2.50;;;1.60;;
52354;SDS011;38286;51.156;17.038;2023-03-23T10:20:19;4.53;;;1.63;;
52354;SDS011;38286;51.156;17.038;2023-03-23T10:25:19;2.35;;;1.42;;
52354;SDS011;38286;51.156;17.038;2023-03-23T10:27:58;4.32;;;1.50;;
52354;SDS011;38286;51.156;17.038;2023-03-23T10:30:30;7.55;;;1.50;;
52354;SDS011;38286;51.156;17.038;2023-03-23T10:33:10;3.08;;;1.40;;
52354;SDS011;38286;51.156;17.038;2023-03-23T10:35:45;2.78;;;1.23;;
52354;SDS011;38286;51.156;17.038;2023-03-23T10:38:19;3.40;;;1.50;;
52354;SDS011;38286;51.156;17.038;2023-03-23T10:40:50;1.67;;;1.38;;
52354;SDS011;38286;51.156;17.038;2023-03-23T10:43:20;3.85;;;1.30;;
52354;SDS011;38286;51.156;17.038;2023-03-23T10:45:48;3.03;;;1.38;;
52354;SDS011;38286;51.156;17.038;2023-03-23T10:48:28;3.08;;;1.30;;
52354;SDS011;38286;51.156;17.038;2023-03-23T10:51:00;2.47;;;1.20;;
52354;SDS011;38286;51.156;17.038;2023-03-23T10:55:55;3.00;;;1.50;;
52354;SDS011;38286;51.156;17.038;2023-03-23T10:58:23;1.42;;;1.10;;
52354;SDS011;38286;51.156;17.038;2023-03-23T11:00:51;1.05;;;0.95;;
52354;SDS011;38286;51.156;17.038;2023-03-23T11:05:50;1.63;;;1.00;;
52354;SDS011;38286;51.156;17.038;2023-03-23T11:08:23;1.05;;;0.95;;
52354;SDS011;38286;51.156;17.038;2023-03-23T11:10:57;3.73;;;1.07;;
52354;SDS011;38286;51.156;17.038;2023-03-23T11:13:29;3.35;;;1.05;;
52354;SDS011;38286;51.156;17.038;2023-03-23T11:15:56;2.22;;;1.20;;
52354;SDS011;38286;51.156;17.038;2023-03-23T11:18:42;4.75;;;1.50;;
52354;SDS011;38286;51.156;17.038;2023-03-23T11:21:11;2.95;;;1.48;;
52354;SDS011;38286;51.156;17.038;2023-03-23T11:23:39;1.65;;;1.35;;
52354;SDS011;38286;51.156;17.038;2023-03-23T11:26:15;2.40;;;1.20;;
52354;SDS011;38286;51.156;17.038;2023-03-23T11:32:02;2.47;;;1.27;;
52354;SDS011;38286;51.156;17.038;2023-03-23T11:34:40;2.30;;;1.10;;
52354;SDS011;38286;51.156;17.038;2023-03-23T11:37:13;5.93;;;1.30;;
52354;SDS011;38286;51.156;17.038;2023-03-23T11:40:17;2.05;;;1.10;;
52354;SDS011;38286;51.156;17.038;2023-03-23T11:42:43;2.92;;;1.15;;
52354;SDS011;38286;51.156;17.038;2023-03-23T11:45:18;1.52;;;1.27;;
52354;SDS011;38286;51.156;17.038;2023-03-23T11:48:01;2.25;;;1.40;;
52354;SDS011;38286;51.156;17.038;2023-03-23T11:50:43;5.90;;;1.50;;
52354;SDS011;38286;51.156;17.038;2023-03-23T11:53:16;2.47;;;1.25;;
52354;SDS011;38286;51.156;17.038;2023-03-23T11:58:26;1.88;;;1.40;;
52354;SDS011;38286;51.156;17.038;2023-03-23T12:00:59;1.95;;;1.27;;
52354;SDS011;38286;51.156;17.038;2023-03-23T12:07:13;2.20;;;1.40;;
52354;SDS011;38286;51.156;17.038;2023-03-23T12:12:15;1.58;;;1.27;;
52354;SDS011;38286;51.156;17.038;2023-03-23T12:15:05;7.05;;;1.75;;
52354;SDS011;38286;51.156;17.038;2023-03-23T12:23:56;3.70;;;1.40;;
52354;SDS011;38286;51.156;17.038;2023-03-23T12:26:47;4.60;;;1.60;;
52354;SDS011;38286;51.156;17.038;2023-03-23T12:29:31;2.10;;;1.30;;
52354;SDS011;38286;51.156;17.038;2023-03-23T12:35:04;2.55;;;1.45;;
52354;SDS011;38286;51.156;17.038;2023-03-23T12:45:59;1.95;;;1.40;;
52354;SDS011;38286;51.156;17.038;2023-03-23T12:48:35;2.30;;;1.77;;
52354;SDS011;38286;51.156;17.038;2023-03-23T12:51:33;1.98;;;1.50;;
52354;SDS011;38286;51.156;17.038;2023-03-23T12:57:20;2.15;;;1.55;;
52354;SDS011;38286;51.156;17.038;2023-03-23T13:00:05;1.77;;;1.40;;
52354;SDS011;38286;51.156;17.038;2023-03-23T13:10:32;6.68;;;1.58;;
52354;SDS011;38286;51.156;17.038;2023-03-23T13:13:01;2.92;;;1.80;;
52354;SDS011;38286;51.156;17.038;2023-03-23T13:21:14;2.30;;;1.58;;
52354;SDS011;38286;51.156;17.038;2023-03-23T13:23:49;1.85;;;1.50;;
52354;SDS011;38286;51.156;17.038;2023-03-23T13:26:18;3.85;;;1.77;;
52354;SDS011;38286;51.156;17.038;2023-03-23T13:31:38;7.45;;;2.20;;
52354;SDS011;38286;51.156;17.038;2023-03-23T13:34:16;9.73;;;2.33;;
52354;SDS011;38286;51.156;17.038;2023-03-23T13:37:02;7.00;;;2.13;;
52354;SDS011;38286;51.156;17.038;2023-03-23T13:39:37;5.05;;;1.90;;
52354;SDS011;38286;51.156;17.038;2023-03-23T13:49:54;5.55;;;2.22;;
52354;SDS011;38286;51.156;17.038;2023-03-23T13:52:23;6.80;;;2.92;;
52354;SDS011;38286;51.156;17.038;2023-03-23T14:10:55;3.72;;;2.10;;
52354;SDS011;38286;51.156;17.038;2023-03-23T14:16:24;6.00;;;2.30;;
52354;SDS011;38286;51.156;17.038;2023-03-23T14:18:56;3.17;;;2.47;;
52354;SDS011;38286;51.156;17.038;2023-03-23T14:21:42;10.45;;;2.60;;
52354;SDS011;38286;51.156;17.038;2023-03-23T14:24:16;3.22;;;2.20;;
52354;SDS011;38286;51.156;17.038;2023-03-23T14:26:51;4.93;;;2.00;;
52354;SDS011;38286;51.156;17.038;2023-03-23T14:29:18;2.92;;;1.70;;
52354;SDS011;38286;51.156;17.038;2023-03-23T14:31:48;3.92;;;2.22;;
52354;SDS011;38286;51.156;17.038;2023-03-23T14:34:19;3.20;;;1.90;;
52354;SDS011;38286;51.156;17.038;2023-03-23T14:36:46;3.72;;;1.90;;
52354;SDS011;38286;51.156;17.038;2023-03-23T14:41:46;4.60;;;2.08;;
52354;SDS011;38286;51.156;17.038;2023-03-23T14:44:15;3.40;;;2.00;;
52354;SDS011;38286;51.156;17.038;2023-03-23T14:46:43;5.65;;;2.33;;
52354;SDS011;38286;51.156;17.038;2023-03-23T14:49:10;4.20;;;2.35;;
52354;SDS011;38286;51.156;17.038;2023-03-23T14:51:46;4.07;;;1.80;;
52354;SDS011;38286;51.156;17.038;2023-03-23T14:54:13;4.07;;;2.20;;
52354;SDS011;38286;51.156;17.038;2023-03-23T14:56:40;4.55;;;2.22;;
52354;SDS011;38286;51.156;17.038;2023-03-23T14:59:09;4.93;;;2.10;;
52354;SDS011;38286;51.156;17.038;2023-03-23T15:01:36;4.28;;;2.65;;
52354;SDS011;38286;51.156;17.038;2023-03-23T15:06:42;3.28;;;2.33;;
52354;SDS011;38286;51.156;17.038;2023-03-23T15:09:12;4.93;;;2.25;;
52354;SDS011;38286;51.156;17.038;2023-03-23T15:11:40;4.65;;;2.20;;
52354;SDS011;38286;51.156;17.038;2023-03-23T15:14:14;3.22;;;2.28;;
52354;SDS011;38286;51.156;17.038;2023-03-23T15:16:49;3.88;;;2.08;;
52354;SDS011;38286;51.156;17.038;2023-03-23T15:19:21;8.43;;;2.45;;
52354;SDS011;38286;51.156;17.038;2023-03-23T15:21:50;3.90;;;2.50;;
52354;SDS011;38286;51.156;17.038;2023-03-23T15:24:24;4.45;;;2.40;;
52354;SDS011;38286;51.156;17.038;2023-03-23T15:26:52;3.20;;;1.90;;
52354;SDS011;38286;51.156;17.038;2023-03-23T15:29:20;4.32;;;2.50;;
52354;SDS011;38286;51.156;17.038;2023-03-23T15:31:55;4.90;;;2.60;;
52354;SDS011;38286;51.156;17.038;2023-03-23T15:34:25;5.10;;;2.50;;
52354;SDS011;38286;51.156;17.038;2023-03-23T15:36:56;2.65;;;2.20;;
52354;SDS011;38286;51.156;17.038;2023-03-23T15:39:30;3.85;;;2.45;;
52354;SDS011;38286;51.156;17.038;2023-03-23T15:41:57;4.22;;;2.65;;
52354;SDS011;38286;51.156;17.038;2023-03-23T15:44:29;3.08;;;2.20;;
52354;SDS011;38286;51.156;17.038;2023-03-23T15:47:13;5.55;;;2.33;;
52354;SDS011;38286;51.156;17.038;2023-03-23T15:49:41;5.68;;;2.38;;
52354;SDS011;38286;51.156;17.038;2023-03-23T15:52:12;3.10;;;1.92;;
52354;SDS011;38286;51.156;17.038;2023-03-23T15:54:45;3.80;;;2.28;;
52354;SDS011;38286;51.156;17.038;2023-03-23T15:57:12;4.95;;;2.40;;
52354;SDS011;38286;51.156;17.038;2023-03-23T15:59:38;4.05;;;2.45;;
52354;SDS011;38286;51.156;17.038;2023-03-23T16:02:04;7.35;;;2.35;;
52354;SDS011;38286;51.156;17.038;2023-03-23T16:04:30;3.45;;;2.03;;
52354;SDS011;38286;51.156;17.038;2023-03-23T16:06:57;7.65;;;2.33;;
52354;SDS011;38286;51.156;17.038;2023-03-23T16:09:25;4.43;;;2.20;;
52354;SDS011;38286;51.156;17.038;2023-03-23T16:11:51;3.28;;;2.10;;
52354;SDS011;38286;51.156;17.038;2023-03-23T16:14:18;5.95;;;2.10;;
52354;SDS011;38286;51.156;17.038;2023-03-23T16:16:45;6.28;;;2.53;;
52354;SDS011;38286;51.156;17.038;2023-03-23T16:19:13;5.07;;;2.50;;
52354;SDS011;38286;51.156;17.038;2023-03-23T16:21:40;6.15;;;2.47;;
52354;SDS011;38286;51.156;17.038;2023-03-23T16:24:07;5.10;;;2.67;;
52354;SDS011;38286;51.156;17.038;2023-03-23T16:26:34;4.00;;;2.55;;
52354;SDS011;38286;51.156;17.038;2023-03-23T16:29:00;3.42;;;2.70;;
52354;SDS011;38286;51.156;17.038;2023-03-23T16:31:27;3.92;;;2.50;;
52354;SDS011;38286;51.156;17.038;2023-03-23T16:33:53;7.63;;;2.70;;
52354;SDS011;38286;51.156;17.038;2023-03-23T16:36:19;5.47;;;2.70;;
52354;SDS011;38286;51.156;17.038;2023-03-23T16:38:46;5.32;;;2.67;;
52354;SDS011;38286;51.156;17.038;2023-03-23T16:41:11;3.63;;;2.40;;
52354;SDS011;38286;51.156;17.038;2023-03-23T16:43:38;5.22;;;2.75;;
52354;SDS011;38286;51.156;17.038;2023-03-23T16:46:03;6.70;;;2.80;;